Main page
METAR-TAF:

METAR-TAF

Airports :

W. K. Kellogg Airport

Battle Creek, Michigan, United States

latitude: 42-18-45N, longitude: 085-14-27W, elevation: 951 ft

Current weather observation

The report was made 1 hour and 4 minutes ago, at 20:53 UTC
Wind 16 mph from the North/Northwest with gusts up to 24 mph
Temperature 79°F
Humidity 45%
Pressure 29.95 in. Hg
Visibility: 10 miles
Clear sky

METAR: KBTL 172053Z 33014G21KT 10SM CLR 26/13 A2995 RMK AO2 SLP135 T02560128 53007

Time: 17:57 (21:57 UTC)

Forecast

The report was made 4 hours and 37 minutes ago, at 17:20 UTC
Forecast valid from 17 at 18 UTC to 18 at 18 UTC
Wind 15 mph from the West/Northwest
Visibility: 6 miles
Broken clouds at a height of 4000 ft
Broken clouds at a height of 5000 ft
Broken clouds at a height of 6000 ft
From 18 at 0100 UTC
Wind 9 mph from the North/Northwest
Visibility: 6 miles
Clear sky

TAF: KBTL 171720Z 1718/1818 29013KT P6SM BKN040 BKN050 BKN060 FM180100 33008KT P6SM SKC

Weather observations and forecasts of more than 4000 airports (METAR and TAF reports).

The available stations are represented by yellow and red dots on the map.

Hover mouse over dot to see the name of the station.

Then click to see weather observations and forecasts.

To change the map : click on the green buttons with a black cross to zoom in, on the green button with a dash to zoom out, or on the green arrows for adjacent maps.


METAR-TAF: